Time;durP1;ratioP1;P1;durP2;ratioP2;P2;SDS_P1;SDS_P2;PMS_P1;PMS_P2;Temp;Humidity;BMP_temperature;BMP_pressure;BME280_temperature;BME280_humidity;BME280_pressure;Samples;Min_cycle;Max_cycle;Signal;HPM_P1;HPM_P2
2024/03/22 00:00:57;;;;;;;43.20;31.00;;;10.80;99.90;;;;;;5043947;28;20961;-72
2024/03/22 00:03:23;;;;;;;44.05;30.60;;;10.80;99.90;;;;;;5043520;28;20182;-72
2024/03/22 00:05:48;;;;;;;45.95;29.05;;;10.90;99.90;;;;;;5042707;28;20302;-71
2024/03/22 00:08:14;;;;;;;42.65;28.80;;;10.90;99.90;;;;;;5026386;28;20624;-70
2024/03/22 00:10:40;;;;;;;44.72;29.85;;;10.90;99.90;;;;;;5042626;28;20203;-68
2024/03/22 00:13:06;;;;;;;45.22;28.98;;;10.90;99.90;;;;;;5043364;28;20253;-69
2024/03/22 00:15:31;;;;;;;52.22;30.05;;;10.90;99.90;;;;;;5043892;28;20358;-72
2024/03/22 00:17:57;;;;;;;46.50;29.15;;;10.90;99.90;;;;;;5041803;28;20225;-69
2024/03/22 00:20:23;;;;;;;45.10;29.63;;;10.90;99.90;;;;;;5042488;28;20192;-68
2024/03/22 00:22:49;;;;;;;41.92;29.58;;;10.90;99.90;;;;;;5043543;28;20187;-70
2024/03/22 00:25:14;;;;;;;44.45;29.30;;;10.90;99.90;;;;;;5042460;28;20183;-71
2024/03/22 00:27:40;;;;;;;43.58;30.70;;;10.90;99.90;;;;;;5025567;28;20192;-69
2024/03/22 00:30:06;;;;;;;49.25;31.17;;;10.90;99.90;;;;;;5025573;28;20237;-69
2024/03/22 00:32:32;;;;;;;49.15;31.33;;;10.90;99.90;;;;;;5043624;28;20187;-71
2024/03/22 00:34:57;;;;;;;47.38;31.05;;;10.90;99.90;;;;;;5043061;28;20202;-72
2024/03/22 00:37:23;;;;;;;44.20;31.27;;;10.90;99.90;;;;;;5041611;28;20195;-73
2024/03/22 00:39:49;;;;;;;46.42;31.50;;;10.90;99.90;;;;;;5042129;28;20227;-70
2024/03/22 00:42:14;;;;;;;47.95;31.85;;;10.90;99.90;;;;;;5043181;28;20183;-71
2024/03/22 00:44:41;;;;;;;45.92;32.20;;;10.90;99.90;;;;;;5043159;28;20257;-71
2024/03/22 00:47:06;;;;;;;47.70;32.05;;;10.90;99.90;;;;;;5043012;28;20245;-71
2024/03/22 00:49:32;;;;;;;53.30;33.70;;;10.90;99.90;;;;;;5042043;28;20727;-71
2024/03/22 00:51:58;;;;;;;48.65;32.15;;;10.90;99.90;;;;;;5043481;28;20191;-68
2024/03/22 00:54:23;;;;;;;51.38;34.30;;;10.90;99.90;;;;;;5043080;28;20187;-73
2024/03/22 00:56:49;;;;;;;53.00;34.25;;;10.90;99.90;;;;;;5042134;28;20250;-70
2024/03/22 00:59:15;;;;;;;51.63;34.72;;;10.90;99.90;;;;;;5043811;28;20210;-70
2024/03/22 01:01:40;;;;;;;50.50;34.92;;;10.90;99.90;;;;;;5042922;28;20195;-70
2024/03/22 01:04:08;;;;;;;57.58;35.38;;;11.00;99.90;;;;;;5042891;28;20324;-71
2024/03/22 01:06:34;;;;;;;52.88;34.65;;;10.90;99.90;;;;;;5041923;28;20674;-68
2024/03/22 01:09:00;;;;;;;53.85;35.20;;;10.90;99.90;;;;;;5041511;28;20219;-69
2024/03/22 01:11:26;;;;;;;57.90;37.72;;;10.90;99.90;;;;;;5040992;28;20229;-69
2024/03/22 01:13:51;;;;;;;57.67;36.20;;;10.90;99.90;;;;;;5041675;28;20237;-71
2024/03/22 01:16:17;;;;;;;56.08;37.08;;;11.00;99.90;;;;;;5042576;28;20183;-71
2024/03/22 01:18:43;;;;;;;55.08;37.58;;;10.90;99.90;;;;;;5042339;28;20311;-71
2024/03/22 01:21:08;;;;;;;55.22;37.30;;;10.90;99.90;;;;;;5042698;28;20562;-70
2024/03/22 01:23:34;;;;;;;58.03;38.60;;;10.90;99.90;;;;;;5041070;28;21010;-70
2024/03/22 01:26:00;;;;;;;64.68;39.20;;;11.00;99.90;;;;;;5041337;28;20270;-70
2024/03/22 01:28:25;;;;;;;61.80;38.03;;;10.90;99.90;;;;;;5040677;28;20194;-71
2024/03/22 01:30:51;;;;;;;60.75;38.33;;;11.00;99.90;;;;;;5042704;28;20669;-68
2024/03/22 01:33:17;;;;;;;63.03;39.00;;;11.00;99.90;;;;;;5042419;28;20659;-71
2024/03/22 01:35:42;;;;;;;69.05;39.80;;;11.00;99.90;;;;;;5038883;28;20273;-70
2024/03/22 01:38:08;;;;;;;60.65;39.22;;;11.00;99.90;;;;;;5042237;28;20214;-70
2024/03/22 01:40:34;;;;;;;60.63;39.42;;;11.00;99.90;;;;;;5042667;28;20659;-70
2024/03/22 01:43:00;;;;;;;61.72;40.80;;;11.00;99.90;;;;;;5040599;28;20254;-71
2024/03/22 01:45:31;;;;;;;65.07;39.95;;;11.00;99.90;;;;;;5042084;28;20661;-70
2024/03/22 01:47:57;;;;;;;62.45;40.95;;;11.00;99.90;;;;;;5023333;28;20210;-69
2024/03/22 01:50:23;;;;;;;62.67;40.40;;;11.00;99.90;;;;;;5042168;28;20206;-70
2024/03/22 01:52:50;;;;;;;60.88;40.25;;;11.00;99.90;;;;;;5042129;28;20222;-71
2024/03/22 01:55:16;;;;;;;67.55;41.10;;;11.00;99.90;;;;;;5042191;28;20195;-69
2024/03/22 01:57:46;;;;;;;60.58;40.33;;;11.00;99.90;;;;;;5039215;28;20209;-70
2024/03/22 02:00:14;;;;;;;66.97;41.40;;;11.00;99.90;;;;;;5041598;28;20194;-70
2024/03/22 02:02:40;;;;;;;67.53;41.83;;;11.00;99.90;;;;;;5041673;28;20199;-69
2024/03/22 02:05:19;;;;;;;68.68;41.72;;;11.00;99.90;;;;;;5041439;28;20200;-69
2024/03/22 02:07:45;;;;;;;64.38;40.17;;;11.00;99.90;;;;;;5042259;28;20558;-70
2024/03/22 02:10:12;;;;;;;68.65;41.50;;;11.00;99.90;;;;;;5041604;28;20195;-69
2024/03/22 02:12:41;;;;;;;68.80;42.53;;;11.00;99.90;;;;;;5042465;28;20210;-70
2024/03/22 02:15:08;;;;;;;77.10;43.72;;;11.00;99.90;;;;;;5023281;28;20265;-70
2024/03/22 02:17:34;;;;;;;69.13;42.55;;;11.10;99.90;;;;;;5041664;28;20302;-68
2024/03/22 02:20:00;;;;;;;72.88;43.97;;;11.00;99.90;;;;;;5041434;28;20232;-70
2024/03/22 02:22:27;;;;;;;73.13;43.95;;;11.10;99.90;;;;;;5042329;28;20733;-71
2024/03/22 02:24:53;;;;;;;75.30;43.53;;;11.10;99.90;;;;;;5023784;28;20253;-70
2024/03/22 02:27:18;;;;;;;67.78;42.38;;;11.10;99.90;;;;;;5041493;28;20196;-69
2024/03/22 02:29:44;;;;;;;73.93;44.42;;;11.10;99.90;;;;;;5040690;28;20187;-70
2024/03/22 02:32:10;;;;;;;72.60;44.33;;;11.10;99.90;;;;;;5040138;28;20286;-72
2024/03/22 02:34:36;;;;;;;75.50;46.40;;;11.10;99.90;;;;;;5040964;28;20571;-70
2024/03/22 02:37:02;;;;;;;77.88;46.30;;;11.10;99.90;;;;;;5039260;28;20204;-69
2024/03/22 02:39:28;;;;;;;77.03;46.10;;;11.10;99.90;;;;;;5040043;28;20206;-69
2024/03/22 02:41:54;;;;;;;82.68;45.55;;;11.10;99.90;;;;;;5041704;28;20195;-72
2024/03/22 02:44:20;;;;;;;75.85;44.88;;;11.10;99.90;;;;;;5040131;28;20298;-69
2024/03/22 02:46:46;;;;;;;77.47;45.67;;;11.10;99.90;;;;;;5041172;28;20274;-69
2024/03/22 02:49:12;;;;;;;87.45;47.15;;;11.10;99.90;;;;;;5039778;28;20274;-70
2024/03/22 02:51:37;;;;;;;79.88;46.92;;;11.10;99.90;;;;;;5040883;28;20252;-68
2024/03/22 02:54:04;;;;;;;80.90;46.65;;;11.10;99.90;;;;;;5055581;28;20198;-70
2024/03/22 02:56:30;;;;;;;78.20;45.10;;;11.10;99.90;;;;;;5040956;28;20191;-70
2024/03/22 02:58:56;;;;;;;83.32;46.40;;;11.10;99.90;;;;;;5041046;28;20218;-68
2024/03/22 03:01:22;;;;;;;90.53;47.63;;;11.10;99.90;;;;;;5041246;28;20244;-69
2024/03/22 03:03:47;;;;;;;82.00;46.75;;;11.20;99.90;;;;;;5040589;28;20195;-70
2024/03/22 03:06:13;;;;;;;87.53;48.00;;;11.20;99.90;;;;;;5041562;28;20214;-67
2024/03/22 03:08:39;;;;;;;87.95;46.30;;;11.20;99.90;;;;;;5039652;28;20199;-69
2024/03/22 03:11:05;;;;;;;90.53;47.47;;;11.20;99.90;;;;;;5040697;28;20931;-70
2024/03/22 03:13:31;;;;;;;85.38;47.97;;;11.20;99.90;;;;;;5041049;28;20199;-69
2024/03/22 03:15:57;;;;;;;90.68;48.53;;;11.20;99.90;;;;;;5039351;28;20241;-68
2024/03/22 03:18:23;;;;;;;93.75;48.85;;;11.20;99.90;;;;;;5040161;28;20215;-69
2024/03/22 03:20:48;;;;;;;90.50;49.08;;;11.20;99.90;;;;;;5041493;28;20194;-70
2024/03/22 03:23:14;;;;;;;93.22;49.53;;;11.20;99.90;;;;;;5040878;28;20244;-69
2024/03/22 03:25:40;;;;;;;92.05;50.05;;;11.20;99.90;;;;;;5040815;28;20191;-71
2024/03/22 03:28:07;;;;;;;91.40;48.97;;;11.20;99.90;;;;;;5040916;28;20183;-71
2024/03/22 03:30:34;;;;;;;91.05;49.03;;;11.20;99.90;;;;;;5041339;28;20199;-68
2024/03/22 03:33:00;;;;;;;96.25;49.80;;;11.20;99.90;;;;;;5040364;28;20200;-69
2024/03/22 03:35:26;;;;;;;95.47;49.80;;;11.20;99.90;;;;;;5041028;28;20302;-72
2024/03/22 03:37:52;;;;;;;94.60;49.67;;;11.20;99.90;;;;;;5040375;28;20261;-69
2024/03/22 03:40:18;;;;;;;98.25;51.10;;;11.20;99.90;;;;;;5039974;28;20207;-68
2024/03/22 03:42:44;;;;;;;99.13;49.53;;;11.20;99.90;;;;;;5039149;28;20199;-70
2024/03/22 03:45:10;;;;;;;90.05;47.08;;;11.20;99.90;;;;;;5039645;28;20248;-71
2024/03/22 03:47:35;;;;;;;96.60;50.28;;;11.30;99.90;;;;;;5041004;28;20308;-69
2024/03/22 03:50:02;;;;;;;96.88;48.25;;;11.30;99.90;;;;;;5042765;28;20195;-69
2024/03/22 03:52:27;;;;;;;97.35;49.53;;;11.30;99.90;;;;;;5039002;28;20187;-69
2024/03/22 03:54:53;;;;;;;91.78;48.63;;;11.30;99.90;;;;;;5044104;28;20569;-68
2024/03/22 03:57:19;;;;;;;92.25;48.63;;;11.30;99.90;;;;;;5042500;28;20290;-71
2024/03/22 03:59:44;;;;;;;99.30;48.85;;;11.40;99.90;;;;;;5044742;28;20660;-71
2024/03/22 04:02:10;;;;;;;97.10;48.92;;;11.30;99.90;;;;;;5044569;28;20194;-69
2024/03/22 04:04:36;;;;;;;92.85;48.22;;;11.40;99.90;;;;;;5042348;28;20329;-70
2024/03/22 04:07:02;;;;;;;96.70;49.38;;;11.40;99.90;;;;;;5043817;28;20187;-69
2024/03/22 04:09:28;;;;;;;94.95;47.30;;;11.40;99.90;;;;;;5043867;28;20199;-69
2024/03/22 04:11:54;;;;;;;97.25;47.40;;;11.40;99.90;;;;;;5042523;28;20210;-69
2024/03/22 04:14:19;;;;;;;92.68;46.60;;;11.40;99.90;;;;;;5042631;28;20300;-69
2024/03/22 04:16:45;;;;;;;96.03;46.05;;;11.40;99.90;;;;;;5043887;28;20210;-69
2024/03/22 04:19:11;;;;;;;90.82;45.25;;;11.40;99.90;;;;;;5040899;28;20223;-71
2024/03/22 04:21:36;;;;;;;86.40;43.95;;;11.40;99.90;;;;;;5058970;28;20320;-71
2024/03/22 04:24:02;;;;;;;88.13;46.30;;;11.40;99.90;;;;;;5043655;28;20590;-72
2024/03/22 04:26:28;;;;;;;91.55;45.30;;;11.40;99.90;;;;;;5044257;28;20183;-70
2024/03/22 04:28:54;;;;;;;100.70;48.13;;;11.40;99.90;;;;;;5043641;28;20991;-70
2024/03/22 04:31:19;;;;;;;87.45;45.65;;;11.50;99.90;;;;;;5043915;28;20202;-70
2024/03/22 04:33:45;;;;;;;83.95;45.40;;;11.40;99.90;;;;;;5041982;28;20195;-71
2024/03/22 04:36:11;;;;;;;96.28;46.25;;;11.40;99.90;;;;;;5043250;28;20218;-71
2024/03/22 04:38:36;;;;;;;85.90;45.90;;;11.50;99.90;;;;;;5043361;28;20594;-70
2024/03/22 04:41:02;;;;;;;93.85;45.53;;;11.50;99.90;;;;;;5043415;28;20198;-71
2024/03/22 04:43:28;;;;;;;88.38;44.92;;;11.50;99.90;;;;;;5043103;28;20658;-71
2024/03/22 04:45:54;;;;;;;83.05;44.72;;;11.50;99.90;;;;;;5042701;28;20537;-69
2024/03/22 04:48:21;;;;;;;85.57;44.65;;;11.50;99.90;;;;;;5043521;28;20191;-72
2024/03/22 04:50:52;;;;;;;90.22;44.47;;;11.50;99.90;;;;;;5043114;28;20516;-67
2024/03/22 04:53:18;;;;;;;83.65;44.17;;;11.40;99.90;;;;;;5041551;28;20561;-71
2024/03/22 04:55:44;;;;;;;89.25;44.92;;;11.50;99.90;;;;;;5041924;28;20206;-71
2024/03/22 04:58:17;;;;;;;82.88;43.30;;;11.40;99.90;;;;;;5042500;28;20293;-69
2024/03/22 05:00:43;;;;;;;84.53;43.83;;;11.50;99.90;;;;;;5041821;28;20198;-70
2024/03/22 05:03:09;;;;;;;86.00;44.53;;;11.40;99.90;;;;;;5043252;28;20194;-69
2024/03/22 05:05:35;;;;;;;86.00;44.20;;;11.40;99.90;;;;;;5043028;28;20187;-69
2024/03/22 05:08:02;;;;;;;82.10;44.08;;;11.40;99.90;;;;;;5042526;28;20194;-70
2024/03/22 05:10:29;;;;;;;83.72;43.55;;;11.40;99.90;;;;;;5041363;28;20191;-71
2024/03/22 05:12:55;;;;;;;81.47;40.90;;;11.40;99.90;;;;;;5042800;28;20332;-72
2024/03/22 05:15:21;;;;;;;85.53;43.22;;;11.40;99.90;;;;;;5041088;28;20222;-70
2024/03/22 05:17:48;;;;;;;81.78;39.88;;;11.40;99.90;;;;;;5041868;28;20913;-68
2024/03/22 05:20:14;;;;;;;78.72;40.70;;;11.40;99.90;;;;;;5040928;28;20187;-71
2024/03/22 05:22:39;;;;;;;85.90;42.58;;;11.40;99.90;;;;;;5042918;28;20257;-71
2024/03/22 05:25:06;;;;;;;79.07;40.95;;;11.40;99.90;;;;;;5042595;28;20218;-70
2024/03/22 05:27:32;;;;;;;76.13;40.20;;;11.40;99.90;;;;;;5041825;28;20190;-68
2024/03/22 05:29:58;;;;;;;83.07;40.92;;;11.40;99.90;;;;;;5040727;28;20187;-69
2024/03/22 05:32:25;;;;;;;79.35;40.67;;;11.40;99.90;;;;;;5040757;28;20187;-71
2024/03/22 05:34:51;;;;;;;76.10;39.70;;;11.40;99.90;;;;;;5042220;28;20191;-68
2024/03/22 05:37:17;;;;;;;73.32;39.70;;;11.40;99.90;;;;;;5042327;28;21271;-69
2024/03/22 05:39:42;;;;;;;75.95;39.90;;;11.40;99.90;;;;;;5042509;28;20206;-71
2024/03/22 05:42:08;;;;;;;73.28;38.20;;;11.40;99.90;;;;;;5040968;28;20531;-68
2024/03/22 05:44:34;;;;;;;80.10;38.38;;;11.40;99.90;;;;;;5042414;28;20201;-70
2024/03/22 05:47:00;;;;;;;75.38;39.25;;;11.40;99.90;;;;;;5040935;28;20195;-69
2024/03/22 05:49:26;;;;;;;69.38;36.75;;;11.40;99.90;;;;;;5041864;28;20205;-69
2024/03/22 05:51:52;;;;;;;66.00;37.05;;;11.40;99.90;;;;;;5040901;28;20198;-72
2024/03/22 05:54:18;;;;;;;75.25;38.92;;;11.40;99.90;;;;;;5041257;28;20195;-70
2024/03/22 05:56:44;;;;;;;75.45;39.08;;;11.40;99.90;;;;;;5041711;28;20213;-70
2024/03/22 05:59:10;;;;;;;74.03;38.97;;;11.30;99.90;;;;;;5041420;28;20292;-70
2024/03/22 06:01:38;;;;;;;66.82;37.13;;;11.40;99.90;;;;;;5041066;28;20175;-70
2024/03/22 06:04:03;;;;;;;68.78;35.00;;;11.30;99.90;;;;;;5042319;28;20187;-70
2024/03/22 06:06:29;;;;;;;64.57;34.63;;;11.30;99.90;;;;;;5040709;28;20195;-70
2024/03/22 06:08:56;;;;;;;70.95;35.35;;;11.30;99.90;;;;;;5039698;28;20663;-68
2024/03/22 06:11:22;;;;;;;68.00;36.60;;;11.20;99.90;;;;;;5042416;28;20206;-72
2024/03/22 06:13:48;;;;;;;67.03;35.38;;;11.20;99.90;;;;;;5041272;28;20191;-69
2024/03/22 06:16:15;;;;;;;65.90;34.58;;;11.20;99.90;;;;;;5035013;28;20715;-70
2024/03/22 06:18:40;;;;;;;54.30;29.58;;;11.10;99.90;;;;;;5040231;28;21196;-71
2024/03/22 06:21:06;;;;;;;55.72;30.83;;;11.20;99.90;;;;;;5041687;28;20199;-70
2024/03/22 06:23:33;;;;;;;50.80;28.98;;;11.10;99.90;;;;;;5042131;28;20263;-70
2024/03/22 06:25:59;;;;;;;54.92;29.83;;;11.10;99.90;;;;;;5040026;28;20187;-73
2024/03/22 06:28:26;;;;;;;55.75;28.77;;;11.10;99.90;;;;;;5041480;28;20205;-69
2024/03/22 06:30:52;;;;;;;47.83;25.80;;;11.00;99.90;;;;;;5041092;28;20195;-72
2024/03/22 06:33:19;;;;;;;52.00;26.50;;;11.00;99.90;;;;;;5039375;28;20190;-72
2024/03/22 06:35:46;;;;;;;48.53;25.58;;;11.10;99.90;;;;;;5041225;28;20230;-69
2024/03/22 06:38:12;;;;;;;52.10;25.83;;;11.00;99.90;;;;;;5041794;28;21088;-71
2024/03/22 06:40:38;;;;;;;49.28;23.70;;;11.10;99.90;;;;;;5041382;28;20269;-69
2024/03/22 06:43:03;;;;;;;48.05;23.73;;;11.10;99.90;;;;;;5041557;28;20191;-68
2024/03/22 06:45:29;;;;;;;44.00;24.67;;;11.10;99.90;;;;;;5040572;28;20183;-70
2024/03/22 06:47:55;;;;;;;47.63;24.95;;;11.10;99.90;;;;;;5041715;28;20195;-71
2024/03/22 06:50:24;;;;;;;54.10;24.58;;;11.00;99.90;;;;;;5041230;28;20191;-69
2024/03/22 06:52:54;;;;;;;45.25;24.58;;;11.10;99.90;;;;;;5041642;28;20179;-72
2024/03/22 06:55:23;;;;;;;50.03;24.05;;;11.00;99.90;;;;;;5041407;28;20201;-70
2024/03/22 06:57:49;;;;;;;44.00;22.48;;;11.10;99.90;;;;;;5041821;28;20203;-71
2024/03/22 07:00:16;;;;;;;46.53;22.90;;;11.10;99.90;;;;;;5040701;28;20255;-69
2024/03/22 07:02:42;;;;;;;49.72;22.50;;;11.10;99.90;;;;;;5041236;28;20186;-70
2024/03/22 07:05:08;;;;;;;43.15;21.45;;;11.10;99.90;;;;;;5041141;28;20191;-70
2024/03/22 07:07:35;;;;;;;42.40;21.08;;;11.10;99.90;;;;;;5041270;28;20248;-69
2024/03/22 07:10:01;;;;;;;45.40;20.95;;;11.10;99.90;;;;;;5040959;28;20187;-68
2024/03/22 07:12:27;;;;;;;43.05;20.25;;;11.10;99.90;;;;;;5039781;28;20280;-71
2024/03/22 07:14:53;;;;;;;42.00;20.58;;;11.10;99.90;;;;;;5041080;28;20223;-70
2024/03/22 07:17:23;;;;;;;41.22;19.80;;;11.20;99.90;;;;;;5040656;28;20236;-70
2024/03/22 07:19:52;;;;;;;43.25;21.17;;;11.20;99.90;;;;;;5041347;28;20231;-73
2024/03/22 07:22:19;;;;;;;41.42;20.63;;;11.10;99.90;;;;;;5040254;28;20187;-69
2024/03/22 07:24:45;;;;;;;36.42;20.58;;;11.10;99.90;;;;;;5040795;28;20191;-72
2024/03/22 07:27:11;;;;;;;43.65;20.10;;;11.10;99.90;;;;;;5044949;28;20308;-71
2024/03/22 07:29:37;;;;;;;38.17;20.83;;;11.10;99.90;;;;;;5031217;28;20203;-70
2024/03/22 07:32:03;;;;;;;40.95;20.83;;;11.10;99.90;;;;;;5043208;28;20560;-70
2024/03/22 07:34:29;;;;;;;44.00;21.40;;;11.10;99.90;;;;;;5044952;28;20191;-72
2024/03/22 07:36:55;;;;;;;46.75;22.05;;;11.10;99.90;;;;;;5043484;28;20230;-74
2024/03/22 07:39:21;;;;;;;39.40;19.95;;;11.10;99.90;;;;;;5042549;28;20214;-73
2024/03/22 07:41:46;;;;;;;39.45;20.35;;;11.10;99.90;;;;;;5043789;28;20188;-72
2024/03/22 07:44:12;;;;;;;37.92;20.67;;;11.10;99.90;;;;;;5045455;28;20274;-71
2024/03/22 07:46:38;;;;;;;40.42;20.00;;;11.20;99.90;;;;;;5042614;28;20191;-68
2024/03/22 07:49:04;;;;;;;37.85;19.63;;;11.10;99.90;;;;;;5042711;28;20909;-70
2024/03/22 07:51:30;;;;;;;37.55;19.27;;;11.20;99.90;;;;;;5045174;28;20720;-70
2024/03/22 07:53:58;;;;;;;39.88;19.20;;;11.10;99.90;;;;;;5044668;28;21176;-71
2024/03/22 07:56:24;;;;;;;38.67;19.33;;;11.10;99.90;;;;;;5044350;28;20199;-68
2024/03/22 07:58:49;;;;;;;34.40;18.83;;;11.10;99.90;;;;;;5043342;28;20234;-74
2024/03/22 08:01:17;;;;;;;33.60;18.42;;;11.10;99.90;;;;;;5043831;28;20261;-71
2024/03/22 08:03:43;;;;;;;42.45;18.98;;;11.10;99.90;;;;;;5044520;28;20270;-74
2024/03/22 08:06:09;;;;;;;29.73;15.80;;;11.10;99.90;;;;;;5042726;28;20233;-74
2024/03/22 08:08:34;;;;;;;32.75;17.35;;;11.10;99.90;;;;;;5044082;28;20558;-72
2024/03/22 08:11:00;;;;;;;29.58;16.30;;;11.10;99.90;;;;;;5043886;28;20225;-74
2024/03/22 08:13:26;;;;;;;30.38;16.48;;;11.10;99.90;;;;;;5043648;28;20298;-76
2024/03/22 08:15:51;;;;;;;31.58;16.38;;;11.10;99.90;;;;;;5043335;28;20226;-70
2024/03/22 08:18:17;;;;;;;30.45;16.92;;;11.10;99.90;;;;;;5043564;28;20215;-70
2024/03/22 08:20:43;;;;;;;31.52;16.52;;;11.20;99.90;;;;;;5043482;28;20202;-69
2024/03/22 08:23:08;;;;;;;22.20;14.00;;;11.10;99.90;;;;;;5043589;28;20194;-70
2024/03/22 08:25:34;;;;;;;28.27;15.55;;;11.20;99.90;;;;;;5043977;28;20211;-71
2024/03/22 08:28:00;;;;;;;26.38;15.00;;;11.10;99.90;;;;;;5043498;28;20187;-69
2024/03/22 08:30:25;;;;;;;25.80;16.27;;;11.20;99.90;;;;;;5043513;28;20201;-71
2024/03/22 08:32:52;;;;;;;25.75;14.35;;;11.20;99.90;;;;;;5043774;28;20204;-71
2024/03/22 08:35:18;;;;;;;21.35;13.43;;;11.20;99.90;;;;;;5042682;28;20648;-72
2024/03/22 08:37:44;;;;;;;22.52;12.98;;;11.20;99.90;;;;;;5039939;28;20286;-69
2024/03/22 08:40:10;;;;;;;21.25;13.20;;;11.20;99.90;;;;;;5043156;28;20237;-71
2024/03/22 08:42:36;;;;;;;20.80;14.45;;;11.20;99.90;;;;;;5043750;28;20282;-72
2024/03/22 08:45:04;;;;;;;22.25;14.43;;;11.20;99.90;;;;;;5043311;28;20282;-72
2024/03/22 08:47:30;;;;;;;25.40;13.57;;;11.20;99.90;;;;;;5026512;28;20229;-76
2024/03/22 08:49:57;;;;;;;15.75;11.13;;;11.20;99.90;;;;;;5042211;28;20245;-70
2024/03/22 08:52:24;;;;;;;16.95;11.52;;;11.20;99.90;;;;;;5043443;28;20241;-72
2024/03/22 08:54:52;;;;;;;20.02;12.38;;;11.20;99.90;;;;;;5041771;28;20187;-70
2024/03/22 08:57:17;;;;;;;17.15;10.48;;;11.20;99.90;;;;;;5043213;28;20519;-71
2024/03/22 08:59:44;;;;;;;16.55;10.57;;;11.30;99.90;;;;;;5041516;28;20269;-71
2024/03/22 09:02:09;;;;;;;16.35;10.40;;;11.30;99.90;;;;;;5043174;28;20182;-71
2024/03/22 09:04:35;;;;;;;15.27;10.93;;;11.30;99.90;;;;;;5042148;28;20189;-71
2024/03/22 09:07:01;;;;;;;16.55;10.50;;;11.30;99.90;;;;;;5042684;28;20211;-71
2024/03/22 09:09:26;;;;;;;15.30;9.48;;;11.30;99.90;;;;;;5042560;28;20647;-70
2024/03/22 09:11:52;;;;;;;16.92;10.73;;;11.30;99.90;;;;;;5058158;28;20190;-71
2024/03/22 09:14:18;;;;;;;15.57;10.27;;;11.30;99.90;;;;;;5042445;28;20683;-70
2024/03/22 09:16:44;;;;;;;15.38;9.65;;;11.30;99.90;;;;;;5042979;28;20218;-72
2024/03/22 09:19:10;;;;;;;13.65;9.70;;;11.30;99.90;;;;;;5041774;28;20214;-71
2024/03/22 09:21:36;;;;;;;12.57;9.05;;;11.30;99.90;;;;;;5041618;28;20675;-72
2024/03/22 09:24:03;;;;;;;13.38;9.00;;;11.30;99.90;;;;;;5041830;28;20218;-73
2024/03/22 09:26:29;;;;;;;14.80;9.13;;;11.30;99.90;;;;;;5042247;28;20207;-72
2024/03/22 09:28:54;;;;;;;13.32;9.20;;;11.30;99.90;;;;;;5042289;28;20222;-74
2024/03/22 09:31:20;;;;;;;16.85;8.93;;;11.40;99.90;;;;;;5040800;28;20195;-73
2024/03/22 09:33:46;;;;;;;13.77;10.10;;;11.30;99.90;;;;;;5042441;28;20199;-73
2024/03/22 09:36:11;;;;;;;13.23;9.40;;;11.30;99.90;;;;;;5041784;28;20187;-73
2024/03/22 09:38:37;;;;;;;12.00;8.98;;;11.30;99.90;;;;;;5040482;28;20412;-71
2024/03/22 09:41:03;;;;;;;11.90;8.50;;;11.40;99.90;;;;;;5042080;28;20188;-73
2024/03/22 09:43:32;;;;;;;15.65;9.32;;;11.30;99.90;;;;;;5040589;28;20232;-72
2024/03/22 09:45:58;;;;;;;15.02;9.07;;;11.30;99.90;;;;;;5041551;28;20215;-72
2024/03/22 09:48:24;;;;;;;11.15;8.02;;;11.30;99.90;;;;;;5056982;28;20569;-70
2024/03/22 09:50:51;;;;;;;14.25;9.35;;;11.30;99.90;;;;;;5042209;28;20201;-68
2024/03/22 09:53:19;;;;;;;12.52;8.65;;;11.30;99.90;;;;;;5042017;28;20194;-69
2024/03/22 09:55:46;;;;;;;11.73;8.40;;;11.30;99.90;;;;;;5042058;28;20195;-71
2024/03/22 09:58:12;;;;;;;15.00;9.25;;;11.30;99.90;;;;;;5040919;28;20356;-70
2024/03/22 10:00:40;;;;;;;10.02;7.35;;;11.30;99.90;;;;;;5042202;28;20205;-68
2024/03/22 10:03:07;;;;;;;10.48;7.80;;;11.30;99.90;;;;;;5042033;28;20227;-70
2024/03/22 10:05:33;;;;;;;15.40;8.10;;;11.30;99.90;;;;;;5056730;28;20202;-70
2024/03/22 10:08:01;;;;;;;11.32;8.02;;;11.30;99.90;;;;;;5041872;28;20335;-72
2024/03/22 10:10:27;;;;;;;9.00;6.93;;;11.30;99.90;;;;;;5042077;28;20199;-71
2024/03/22 10:12:53;;;;;;;8.90;6.72;;;11.30;99.90;;;;;;5041797;28;20229;-70
2024/03/22 10:15:19;;;;;;;11.10;7.30;;;11.30;99.90;;;;;;5040125;28;20239;-69
2024/03/22 10:17:46;;;;;;;9.35;6.90;;;11.30;99.90;;;;;;5056320;28;20203;-72
2024/03/22 10:20:14;;;;;;;8.30;6.60;;;11.40;99.90;;;;;;5041401;28;20228;-72
2024/03/22 10:23:04;;;;;;;8.68;6.38;;;11.40;99.90;;;;;;5041653;28;20643;-72
2024/03/22 10:25:30;;;;;;;9.57;6.32;;;11.40;99.90;;;;;;5025511;28;20218;-68
2024/03/22 10:27:57;;;;;;;7.93;6.03;;;11.50;99.90;;;;;;5041807;28;20184;-72
2024/03/22 10:30:24;;;;;;;6.43;5.00;;;11.50;99.90;;;;;;5041454;28;20241;-70
2024/03/22 10:32:51;;;;;;;7.60;5.45;;;11.50;99.90;;;;;;5041440;28;20191;-72
2024/03/22 10:35:17;;;;;;;6.97;4.63;;;11.50;99.90;;;;;;5039816;28;20655;-71
2024/03/22 10:37:43;;;;;;;7.43;5.20;;;11.50;99.90;;;;;;5041508;28;20206;-68
2024/03/22 10:40:10;;;;;;;6.07;4.60;;;11.50;99.90;;;;;;5056862;28;20319;-71
2024/03/22 10:42:37;;;;;;;5.68;4.38;;;11.40;99.90;;;;;;5041283;28;20591;-68
2024/03/22 10:45:05;;;;;;;6.13;4.18;;;11.40;99.90;;;;;;5038990;28;21236;-68
2024/03/22 10:47:32;;;;;;;6.30;4.47;;;11.40;99.90;;;;;;5023359;28;20191;-71
2024/03/22 10:50:05;;;;;;;4.95;3.63;;;11.40;99.90;;;;;;5041678;28;20192;-69
2024/03/22 10:52:35;;;;;;;4.88;3.45;;;11.40;99.90;;;;;;5041376;28;20627;-70
2024/03/22 10:55:04;;;;;;;4.97;3.80;;;11.40;99.90;;;;;;5041118;28;20646;-71
2024/03/22 10:57:31;;;;;;;9.48;4.00;;;11.40;99.90;;;;;;5040811;28;20229;-69
2024/03/22 10:59:57;;;;;;;5.65;4.32;;;11.40;99.90;;;;;;5042581;28;20206;-69
2024/03/22 11:02:27;;;;;;;5.65;4.00;;;11.30;99.90;;;;;;5044952;28;20183;-70
2024/03/22 11:04:59;;;;;;;4.45;3.50;;;11.30;99.90;;;;;;5060630;28;20408;-71
2024/03/22 11:07:31;;;;;;;4.28;3.40;;;11.30;99.90;;;;;;5045595;28;20640;-71
2024/03/22 11:09:58;;;;;;;4.35;3.33;;;11.30;99.90;;;;;;5043286;28;20199;-71
2024/03/22 11:12:25;;;;;;;4.28;3.33;;;11.30;99.90;;;;;;5044940;28;20199;-71
2024/03/22 11:14:52;;;;;;;5.90;3.55;;;11.30;99.90;;;;;;5044643;28;20310;-70
2024/03/22 11:17:18;;;;;;;4.55;3.40;;;11.40;99.90;;;;;;5045097;28;20194;-70
2024/03/22 11:19:44;;;;;;;6.00;3.45;;;11.40;99.90;;;;;;5045056;28;20782;-69
2024/03/22 11:22:11;;;;;;;3.72;2.85;;;11.40;99.90;;;;;;5027188;28;20183;-72
2024/03/22 11:24:41;;;;;;;4.80;3.60;;;11.50;99.90;;;;;;5043508;28;20199;-69
2024/03/22 11:27:07;;;;;;;4.15;3.30;;;11.50;99.90;;;;;;5044828;28;20715;-70
2024/03/22 11:29:33;;;;;;;6.15;3.38;;;11.60;99.90;;;;;;5044838;28;20219;-70
2024/03/22 11:32:00;;;;;;;6.57;3.47;;;11.50;99.90;;;;;;5043278;28;20226;-72
2024/03/22 11:34:26;;;;;;;5.10;3.30;;;11.60;99.90;;;;;;5044829;28;20282;-69
2024/03/22 11:36:54;;;;;;;5.00;3.63;;;11.50;99.90;;;;;;5044532;28;20202;-70
2024/03/22 11:39:19;;;;;;;5.25;3.33;;;11.60;99.90;;;;;;5043714;28;20211;-72
2024/03/22 11:41:48;;;;;;;5.82;3.75;;;11.60;99.90;;;;;;5044795;28;20199;-70
2024/03/22 11:44:18;;;;;;;4.75;3.67;;;11.50;99.90;;;;;;5059454;28;20203;-71
2024/03/22 11:46:44;;;;;;;6.00;3.53;;;11.50;99.90;;;;;;5042566;28;20197;-73
2024/03/22 11:49:11;;;;;;;5.00;3.47;;;11.50;99.90;;;;;;5042806;28;20249;-72
2024/03/22 11:51:36;;;;;;;5.68;3.55;;;11.50;99.90;;;;;;5044484;28;20249;-70
2024/03/22 11:54:07;;;;;;;5.13;3.42;;;11.50;99.90;;;;;;5044546;28;20663;-71
2024/03/22 11:56:35;;;;;;;4.95;3.22;;;11.50;99.90;;;;;;5059230;28;20206;-68
2024/03/22 11:59:02;;;;;;;4.28;2.50;;;11.50;99.90;;;;;;5042248;28;20230;-70
2024/03/22 12:01:28;;;;;;;8.10;2.90;;;11.50;99.90;;;;;;5042045;28;20245;-71
2024/03/22 12:03:54;;;;;;;7.05;2.80;;;11.50;99.90;;;;;;5042989;28;20195;-69
2024/03/22 12:06:21;;;;;;;5.28;2.63;;;11.40;99.90;;;;;;5043114;28;20197;-70
2024/03/22 12:08:47;;;;;;;7.05;2.90;;;11.40;99.90;;;;;;5043882;28;20184;-71
2024/03/22 12:11:14;;;;;;;12.25;3.30;;;11.40;99.90;;;;;;5042844;28;20183;-70
2024/03/22 12:13:39;;;;;;;13.45;3.17;;;11.40;99.90;;;;;;5043817;28;20199;-71
2024/03/22 12:16:05;;;;;;;8.32;3.30;;;11.40;99.90;;;;;;5059197;28;20293;-72
2024/03/22 12:18:31;;;;;;;10.38;3.60;;;11.30;99.90;;;;;;5043505;28;20199;-72
2024/03/22 12:20:57;;;;;;;16.33;3.47;;;11.40;99.90;;;;;;5043878;28;20190;-70
2024/03/22 12:23:24;;;;;;;11.30;3.75;;;11.30;99.90;;;;;;5024936;28;20187;-71
2024/03/22 12:25:51;;;;;;;11.88;3.88;;;11.40;99.90;;;;;;5043608;28;20188;-70